Address 0xb3f923eabaf178fc1bd8e13902fc5c61d3ddef5b

 
Txn Hash
Block
From
To
Value [Txn Fee]
0x869857c61085555b00c2fc21fb9edb67b9df8c24e40e0c43c211d4b5eed7943671848012021-05-06 11:23:1635 mins ago0xb3f923eabaf178fc1bd8e13902fc5c61d3ddef5bOUT USD Coin: USDC Token0 BNB0.000119475
0x644d2b69ad3159da979929b31743928670a662f441f3a6b51fe28903a5de289371847842021-05-06 11:22:2536 mins ago0xb3f923eabaf178fc1bd8e13902fc5c61d3ddef5bOUT Binance: BUSD Stablecoin0 BNB0.000105575
0xf4c351e10e147a10c178dee95251ca5fbb34a0fc56ff06e58e0e1c097e59af9c71847742021-05-06 11:21:5536 mins ago0xb3f923eabaf178fc1bd8e13902fc5c61d3ddef5bOUTBinance: Hot Wallet1,581.99913038 BNB0.000105
0xb58e539ee2aa527a1d0fc99c00b951731dd1a4298bd08962ae56a04ab2228c4371847612021-05-06 11:21:1637 mins ago0xb3f923eabaf178fc1bd8e13902fc5c61d3ddef5bOUT Ethereum: ETH Token0 BNB0.000105575
0x85ca92c04a7e1655ee45530fcb28120571dd7fa611ceb0bdf816b21664dc8e9571847342021-05-06 11:19:5538 mins ago0xb3f923eabaf178fc1bd8e13902fc5c61d3ddef5bOUT Chainlink : LINK Token0 BNB0.000105575
0x2b1f845198923f2a61dc4f02162b2c535ddf507850a2606a19fa0ad2e12184eb71622372021-05-05 16:05:3719 hrs 52 mins ago0xb3f923eabaf178fc1bd8e13902fc5c61d3ddef5bOUT Binance: BTCB Token0 BNB0.000105635
0x9f6bf5c35230dedad1eed857b27c9482bb5d9fcd467123975348a0e2ee1d59de71622372021-05-05 16:05:3719 hrs 52 mins ago0xb3f923eabaf178fc1bd8e13902fc5c61d3ddef5bOUT DAI Stablecoin0 BNB0.000105635
0x710215220cf740dedd66b8aa4a588e1ccf0ca5f8a05c02b5ea13dcb92fcc481e71621402021-05-05 16:00:4519 hrs 57 mins ago0xb3f923eabaf178fc1bd8e13902fc5c61d3ddef5bOUT Polkadot: DOT Token0 BNB0.000105575
0xf44b9a76008a2549be999c4eb985d1d379df41ee22d45fb21f2ad46a21514ff971619552021-05-05 15:51:3020 hrs 6 mins ago0xb3f923eabaf178fc1bd8e13902fc5c61d3ddef5bOUT Venus: XVS Token0 BNB0.00013105
0x2f0ce3f2c6d9a3e12ca6462553a5405b17b849ec84c0b85280cac94b4475b4a071619342021-05-05 15:50:2720 hrs 7 mins ago0x000000a0c521dd28025b937b1f15141d61969959 IN 0xb3f923eabaf178fc1bd8e13902fc5c61d3ddef5b1,582 BNB0.001071
0x875770641e16100a5e06deb7614c488438d279f6b8567d29e9627fca90ca15b771609562021-05-05 15:01:2620 hrs 56 mins ago0xb3f923eabaf178fc1bd8e13902fc5c61d3ddef5bOUT Binance: BUSD Stablecoin0 BNB0.000105575
0xed81aad08b3d558c47f74ae7ed3232ddb3a5596fd015283fa3115ab742a44f5a71609342021-05-05 15:00:2020 hrs 58 mins ago0xb3f923eabaf178fc1bd8e13902fc5c61d3ddef5bOUTBinance: Hot Wallet26,829.99850814 BNB0.000105
0x8a0daece7a84ea25455abf14e6145b1141be929a28af1ba982183f691baa229b71597992021-05-05 14:00:5321 hrs 57 mins ago0xb3f923eabaf178fc1bd8e13902fc5c61d3ddef5bOUT Binance: BUSD Stablecoin0 BNB0.000105635
0xefdeb678e49844d3bc39e1ebd471345d7bed88b77d84cb4338a4edda6c4b052171597942021-05-05 14:00:3521 hrs 57 mins ago0xb3f923eabaf178fc1bd8e13902fc5c61d3ddef5bOUT Ethereum: ETH Token0 BNB0.000105575
0xafbb4c16fdd9e3495e7d141db12e21a8f64fee638195cbdb221ffffbcd5961a071597892021-05-05 14:00:1921 hrs 58 mins ago0xb3f923eabaf178fc1bd8e13902fc5c61d3ddef5bOUT PancakeSwap: CAKE Token0 BNB0.000105635
0x686d72f4b48701b93872997f2f89cff1a34549a3cbe603f1e0e3dc0765e9933571596342021-05-05 13:52:0322 hrs 6 mins ago0x000000a0c521dd28025b937b1f15141d61969959 IN 0xb3f923eabaf178fc1bd8e13902fc5c61d3ddef5b1,603 BNB0.001071
0x98e8146e7be2623dc830fa95913b9b1ef732a21177ddc790c685a3bd676d7cab71587142021-05-05 13:06:0322 hrs 52 mins ago0x000000a0c521dd28025b937b1f15141d61969959 IN 0xb3f923eabaf178fc1bd8e13902fc5c61d3ddef5b1,477 BNB0.001071
0x6b8c4882fed64319b4b08a45ffc9f6c31935d25a7b564ceb136881631c1a325b71585182021-05-05 12:56:1423 hrs 2 mins ago0x000000a0c521dd28025b937b1f15141d61969959 IN 0xb3f923eabaf178fc1bd8e13902fc5c61d3ddef5b1,424 BNB0.001071
0x1ac9c435bfc778f9740ee0fb227d1317784e96fd3ac6500e4fd2f9a488ed13cf71577962021-05-05 12:20:0823 hrs 38 mins ago0x000000a0c521dd28025b937b1f15141d61969959 IN 0xb3f923eabaf178fc1bd8e13902fc5c61d3ddef5b1,587 BNB0.001071
0xe3ea20f1315c3dd348d4913339c19fb491773a724e8f7cb72686cee12a1fb6b371577122021-05-05 12:15:5623 hrs 42 mins ago0x000000a0c521dd28025b937b1f15141d61969959 IN 0xb3f923eabaf178fc1bd8e13902fc5c61d3ddef5b1,436 BNB0.001071
0x6eb3aa2cfbacb75bf94e4933cb85ef8ef7cdb2085562afb6edcbc5c96cea4cf471566602021-05-05 11:23:201 day 35 mins ago0x000000a0c521dd28025b937b1f15141d61969959 IN 0xb3f923eabaf178fc1bd8e13902fc5c61d3ddef5b1,415 BNB0.001071
0x8cedb5ff9d57eea1d663954895a11031f96498f604c209aa8e1fb536f8daacd471562012021-05-05 11:00:201 day 58 mins ago0x000000a0c521dd28025b937b1f15141d61969959 IN 0xb3f923eabaf178fc1bd8e13902fc5c61d3ddef5b1,409 BNB0.001071
0x064d264619c169d58908f062c435d7a5ca2b51b40030dee46ef272715f9a640571550782021-05-05 10:04:111 day 1 hr ago0x000000a0c521dd28025b937b1f15141d61969959 IN 0xb3f923eabaf178fc1bd8e13902fc5c61d3ddef5b1,641 BNB0.001071
0x5db4067620d3382e8255f62ee6bccf91e565be396bfe41be7b04eb14ed5c9fd471542622021-05-05 9:22:441 day 2 hrs ago0x000000a0c521dd28025b937b1f15141d61969959 IN 0xb3f923eabaf178fc1bd8e13902fc5c61d3ddef5b1,519 BNB0.001071
0xa9260771dee76f0e6f20c1a4afb4860834a66b0fc270dea01760ac2ed4833a4471535942021-05-05 8:49:201 day 3 hrs ago0x000000a0c521dd28025b937b1f15141d61969959 IN 0xb3f923eabaf178fc1bd8e13902fc5c61d3ddef5b1,499 BNB0.001071
[ Download CSV Export 
Latest 1 internal transaction
Parent Txn Hash Block From To Value
0x3472857ea8369a1ea0d6bbe366a6d65a8f5ba96ae64e99a8420738365e77454e55358372021-03-09 17:46:1657 days 18 hrs ago 0x3e3ec22436f0ef9579e2ecbd3359bea75ee9c0c00xb3f923eabaf178fc1bd8e13902fc5c61d3ddef5b55 BNB
[ Download CSV Export 
Loading

Contract Name:
0 BNB

Compiler Version
0

Optimization Enabled:
0 BNB

Other Settings:
-NA-
Block Transaction Gas Used Reward
Age Block Fee Address BC Fee Address Voting Power Jailed Incoming
Block Uncle Number Difficulty Gas Used Reward
Loading
Loading
Make sure to use the "Vote Down" button for any spammy posts, and the "Vote Up" for interesting conversations.